createdAt,value
2018-06-01T00:00:52.929Z,15.50
2018-06-01T00:03:19.466Z,15.70
2018-06-01T00:05:46.333Z,15.70
2018-06-01T00:08:14.071Z,15.70
2018-06-01T00:10:40.562Z,15.70
2018-06-01T00:13:07.145Z,15.70
2018-06-01T00:15:33.576Z,15.60
2018-06-01T00:18:00.113Z,15.60
2018-06-01T00:20:26.712Z,15.60
2018-06-01T00:22:53.244Z,15.50
2018-06-01T00:25:19.744Z,15.50
2018-06-01T00:27:46.262Z,15.50
2018-06-01T00:30:13.593Z,15.50
2018-06-01T00:32:40.142Z,15.40
2018-06-01T00:35:07.615Z,15.40
2018-06-01T00:37:34.764Z,15.40
2018-06-01T00:40:02.372Z,15.50
2018-06-01T00:42:29.731Z,15.40
2018-06-01T00:44:56.989Z,15.50
2018-06-01T00:47:24.958Z,15.60
2018-06-01T00:49:52.576Z,15.40
2018-06-01T00:52:19.466Z,15.50
2018-06-01T00:54:58.438Z,15.40
2018-06-01T00:57:25.571Z,15.40
2018-06-01T00:59:52.397Z,15.60
2018-06-01T01:02:18.998Z,15.30
2018-06-01T01:04:45.448Z,15.40
2018-06-01T01:07:12.031Z,15.30
2018-06-01T01:09:38.532Z,15.40
2018-06-01T01:12:04.964Z,15.30
2018-06-01T01:14:31.429Z,15.30
2018-06-01T01:16:58.301Z,15.30
2018-06-01T01:19:24.720Z,15.40
2018-06-01T01:21:51.212Z,15.50
2018-06-01T01:24:18.001Z,15.30
2018-06-01T01:26:44.400Z,15.30
2018-06-01T01:29:10.961Z,15.30
2018-06-01T01:31:37.672Z,15.30
2018-06-01T01:34:04.192Z,15.20
2018-06-01T01:48:24.807Z,14.90
2018-06-01T01:50:52.568Z,14.90
2018-06-01T01:53:19.149Z,14.90
2018-06-01T01:55:46.773Z,15.00
2018-06-01T01:58:13.554Z,14.90
2018-06-01T02:00:40.139Z,15.00
2018-06-01T02:03:07.696Z,14.90
2018-06-01T02:05:34.177Z,15.20
2018-06-01T02:08:00.651Z,15.00
2018-06-01T02:10:27.205Z,15.20
2018-06-01T02:12:54.125Z,15.00
2018-06-01T02:15:20.636Z,15.00
2018-06-01T02:17:47.181Z,15.10
2018-06-01T02:20:13.679Z,15.00
2018-06-01T02:22:40.874Z,15.00
2018-06-01T02:25:08.736Z,15.00
2018-06-01T02:27:35.197Z,15.10
2018-06-01T02:30:02.395Z,15.10
2018-06-01T02:32:28.865Z,15.10
2018-06-01T02:34:55.638Z,15.00
2018-06-01T02:37:22.854Z,15.00
2018-06-01T02:39:56.141Z,14.90
2018-06-01T02:42:22.581Z,14.90
2018-06-01T02:44:49.643Z,14.90
2018-06-01T02:47:16.571Z,14.90
2018-06-01T02:49:43.172Z,14.70
2018-06-01T02:52:09.645Z,14.90
2018-06-01T02:54:36.441Z,14.90
2018-06-01T02:57:02.904Z,15.20
2018-06-01T02:59:29.310Z,15.00
2018-06-01T03:01:56.098Z,15.10
2018-06-01T03:04:22.555Z,15.10
2018-06-01T03:07:00.962Z,15.30
2018-06-01T03:09:27.664Z,15.20
2018-06-01T03:11:54.158Z,15.10
2018-06-01T03:14:20.596Z,15.10
2018-06-01T03:16:47.758Z,15.10
2018-06-01T03:19:16.576Z,15.10
2018-06-01T03:21:43.490Z,15.10
2018-06-01T03:26:38.184Z,15.20
2018-06-01T03:29:06.230Z,15.20
2018-06-01T03:31:32.720Z,15.30
2018-06-01T03:33:59.916Z,15.30
2018-06-01T03:36:26.728Z,14.90
2018-06-01T03:38:53.177Z,15.40
2018-06-01T03:41:19.949Z,15.40
2018-06-01T03:43:46.497Z,15.50
2018-06-01T03:46:13.071Z,15.40
2018-06-01T03:49:02.481Z,15.50
2018-06-01T03:51:35.309Z,15.50
2018-06-01T03:54:02.035Z,16.00
2018-06-01T03:56:28.706Z,15.70
2018-06-01T03:58:55.383Z,15.60
2018-06-01T04:03:51.357Z,15.80
2018-06-01T04:06:18.236Z,15.80
2018-06-01T04:08:45.085Z,16.00
2018-06-01T04:11:11.557Z,16.20
2018-06-01T04:13:38.760Z,16.10
2018-06-01T04:16:05.265Z,16.20
2018-06-01T04:18:33.223Z,16.20
2018-06-01T04:21:00.776Z,16.40
2018-06-01T04:23:27.683Z,16.40
2018-06-01T04:25:55.577Z,16.40
2018-06-01T04:28:22.182Z,16.50
2018-06-01T04:30:49.378Z,16.60
2018-06-01T04:33:15.804Z,16.60
2018-06-01T04:35:42.946Z,16.70
2018-06-01T04:38:09.407Z,16.80
2018-06-01T04:40:35.860Z,16.80
2018-06-01T04:43:03.066Z,16.80
2018-06-01T04:47:59.611Z,16.90
2018-06-01T04:50:26.169Z,16.80
2018-06-01T04:52:52.818Z,16.90
2018-06-01T04:55:19.294Z,16.90
2018-06-01T05:00:15.793Z,16.60
2018-06-01T05:02:42.173Z,17.00
2018-06-01T05:05:10.039Z,16.70
2018-06-01T05:07:37.944Z,17.00
2018-06-01T05:10:05.456Z,17.00
2018-06-01T05:12:36.263Z,17.00
2018-06-01T05:15:02.973Z,17.20
2018-06-01T05:17:30.202Z,17.20
2018-06-01T05:19:57.050Z,17.10
2018-06-01T05:22:25.082Z,17.50
2018-06-01T05:27:19.838Z,18.00
2018-06-01T05:29:46.820Z,18.10
2018-06-01T05:32:13.330Z,18.30
2018-06-01T05:34:40.784Z,18.50
2018-06-01T05:39:36.631Z,18.70
2018-06-01T05:42:03.166Z,18.90
2018-06-01T05:44:29.679Z,19.10
2018-06-01T05:46:56.393Z,19.10
2018-06-01T05:49:25.003Z,19.40
2018-06-01T05:51:51.540Z,19.50
2018-06-01T05:54:18.245Z,19.70
2018-06-01T05:56:44.730Z,19.80
2018-06-01T05:59:11.586Z,20.00
2018-06-01T06:01:38.337Z,20.10
2018-06-01T06:04:04.753Z,20.30
2018-06-01T06:06:31.286Z,20.70
2018-06-01T06:08:58.441Z,20.50
2018-06-01T06:11:25.790Z,20.50
2018-06-01T06:13:52.482Z,20.70
2018-06-01T06:18:47.109Z,21.10
2018-06-01T06:21:13.612Z,20.80
2018-06-01T06:26:09.964Z,21.10
2018-06-01T06:31:04.614Z,21.20
2018-06-01T06:33:31.132Z,21.10
2018-06-01T06:35:57.623Z,21.40
2018-06-01T06:38:25.248Z,21.40
2018-06-01T06:40:53.197Z,21.40
2018-06-01T06:45:48.858Z,21.80
2018-06-01T06:48:15.313Z,22.00
2018-06-01T06:50:41.883Z,21.70
2018-06-01T06:53:09.064Z,22.40
2018-06-01T06:58:04.729Z,22.50
2018-06-01T07:03:00.399Z,22.80
2018-06-01T07:05:27.829Z,22.90
2018-06-01T07:07:55.760Z,23.10
2018-06-01T07:10:23.353Z,23.10
2018-06-01T07:12:49.879Z,23.50
2018-06-01T07:17:44.387Z,23.50
2018-06-01T07:20:11.095Z,23.60
2018-06-01T07:22:38.264Z,23.70
2018-06-01T07:25:04.676Z,23.90
2018-06-01T07:27:31.192Z,23.90
2018-06-01T07:29:58.373Z,24.00
2018-06-01T07:32:24.806Z,24.10
2018-06-01T07:34:51.393Z,23.80
2018-06-01T07:37:19.249Z,24.30
2018-06-01T07:39:46.478Z,24.40
2018-06-01T07:42:12.991Z,24.40
2018-06-01T07:44:40.134Z,24.60
2018-06-01T07:49:34.955Z,24.60
2018-06-01T07:54:29.628Z,25.30
2018-06-01T07:56:58.049Z,25.30
2018-06-01T08:01:53.189Z,25.60
2018-06-01T08:04:19.868Z,25.70
2018-06-01T08:09:30.390Z,25.90
2018-06-01T08:14:25.945Z,26.10
2018-06-01T08:16:52.940Z,26.30
2018-06-01T08:19:19.933Z,26.60
2018-06-01T08:21:48.340Z,26.40
2018-06-01T08:24:15.638Z,26.70
2018-06-01T08:26:42.230Z,28.10
2018-06-01T08:29:09.157Z,29.70
2018-06-01T08:31:35.779Z,30.80
2018-06-01T08:34:03.341Z,31.60
2018-06-01T08:36:30.193Z,31.40
2018-06-01T08:38:57.582Z,31.70
2018-06-01T08:41:24.100Z,32.80
2018-06-01T08:43:50.577Z,33.50
2018-06-01T08:46:18.053Z,33.80
2018-06-01T08:48:46.295Z,34.00
2018-06-01T08:51:12.794Z,34.10
2018-06-01T08:53:40.642Z,33.50
2018-06-01T08:56:08.846Z,33.00
2018-06-01T08:58:37.034Z,33.10
2018-06-01T09:01:04.301Z,33.30
2018-06-01T09:03:31.513Z,33.60
2018-06-01T09:05:58.629Z,33.70
2018-06-01T09:08:25.583Z,33.60
2018-06-01T09:10:52.730Z,34.00
2018-06-01T09:13:19.280Z,34.20
2018-06-01T09:15:49.278Z,33.80
2018-06-01T09:18:16.680Z,33.90
2018-06-01T09:20:44.105Z,33.90
2018-06-01T09:23:12.408Z,34.40
2018-06-01T09:25:38.944Z,34.70
2018-06-01T09:28:05.610Z,35.40
2018-06-01T09:30:33.679Z,35.40
2018-06-01T09:33:00.901Z,34.90
2018-06-01T09:35:27.565Z,34.80
2018-06-01T09:37:54.174Z,35.00
2018-06-01T09:40:20.670Z,35.60
2018-06-01T09:42:51.657Z,35.70
2018-06-01T09:47:47.736Z,35.50
2018-06-01T09:52:43.063Z,35.90
2018-06-01T09:55:09.595Z,35.90
2018-06-01T09:57:36.891Z,35.70
2018-06-01T10:02:34.577Z,36.00
2018-06-01T10:05:01.430Z,36.00
2018-06-01T10:07:30.017Z,36.30
2018-06-01T10:10:03.812Z,36.10
2018-06-01T10:12:33.944Z,35.60
2018-06-01T10:15:01.232Z,35.80
2018-06-01T10:17:27.990Z,35.50
2018-06-01T10:19:57.113Z,35.00
2018-06-01T10:22:26.561Z,34.90
2018-06-01T10:24:55.125Z,35.20
2018-06-01T10:27:22.209Z,35.50
2018-06-01T10:32:22.096Z,36.10
2018-06-01T10:34:49.409Z,35.70
2018-06-01T10:37:19.098Z,36.10
2018-06-01T10:39:46.502Z,36.30
2018-06-01T10:42:16.499Z,36.40
2018-06-01T10:44:48.428Z,36.90
2018-06-01T10:49:54.840Z,37.30
2018-06-01T10:55:00.401Z,38.20
2018-06-01T10:57:28.440Z,38.00
2018-06-01T10:59:55.586Z,38.40
2018-06-01T11:02:22.922Z,38.60
2018-06-01T11:04:50.162Z,38.80
2018-06-01T11:07:18.795Z,38.40
2018-06-01T11:09:47.898Z,38.70
2018-06-01T11:12:14.884Z,38.90
2018-06-01T11:14:41.875Z,39.10
2018-06-01T11:17:08.398Z,37.90
2018-06-01T11:19:35.184Z,37.80
2018-06-01T11:22:02.721Z,38.20
2018-06-01T11:24:30.486Z,38.70
2018-06-01T11:26:57.257Z,38.60
2018-06-01T11:29:24.631Z,38.50
2018-06-01T11:31:51.084Z,38.30
2018-06-01T11:34:18.621Z,38.20
2018-06-01T11:36:47.000Z,38.20
2018-06-01T11:39:14.894Z,37.90
2018-06-01T11:41:42.929Z,37.40
2018-06-01T11:44:10.730Z,37.60
2018-06-01T11:46:37.877Z,37.40
2018-06-01T11:49:04.352Z,37.60
2018-06-01T11:51:31.317Z,38.50
2018-06-01T11:56:25.897Z,38.20
2018-06-01T11:58:52.298Z,38.00
2018-06-01T12:01:19.113Z,38.60
2018-06-01T12:06:14.290Z,39.40
2018-06-01T12:08:41.160Z,39.50
2018-06-01T12:11:08.314Z,39.70
2018-06-01T12:16:04.660Z,39.70
2018-06-01T12:18:32.223Z,40.30
2018-06-01T12:21:00.660Z,40.70
2018-06-01T12:23:27.735Z,40.70
2018-06-01T12:25:54.988Z,40.40
2018-06-01T12:28:23.492Z,40.20
2018-06-01T12:30:50.405Z,40.40
2018-06-01T12:33:18.650Z,40.10
2018-06-01T12:35:45.818Z,40.70
2018-06-01T12:40:41.520Z,40.60
2018-06-01T12:43:08.454Z,40.00
2018-06-01T12:48:03.601Z,39.40
2018-06-01T12:50:30.037Z,39.40
2018-06-01T12:55:26.491Z,40.00
2018-06-01T12:57:54.798Z,39.40
2018-06-01T13:00:22.769Z,39.30
2018-06-01T13:10:14.634Z,39.60
2018-06-01T13:12:41.154Z,40.00
2018-06-01T13:15:07.619Z,39.90
2018-06-01T13:17:34.830Z,40.80
2018-06-01T13:22:31.030Z,40.30
2018-06-01T13:24:59.024Z,40.20
2018-06-01T13:32:22.554Z,41.60
2018-06-01T13:34:50.180Z,41.80
2018-06-01T13:37:18.254Z,41.80
2018-06-01T13:39:44.761Z,40.30
2018-06-01T13:42:12.346Z,40.20
2018-06-01T13:49:35.639Z,41.30
2018-06-01T13:52:03.051Z,40.10
2018-06-01T13:59:26.204Z,40.20
2018-06-01T14:04:21.031Z,41.50
2018-06-01T14:06:48.765Z,42.50
2018-06-01T14:09:16.222Z,42.90
2018-06-01T14:11:44.621Z,43.10
2018-06-01T14:14:12.258Z,42.50
2018-06-01T14:16:40.185Z,42.20
2018-06-01T14:19:06.627Z,41.90
2018-06-01T14:21:33.918Z,42.10
2018-06-01T14:24:01.675Z,41.80
2018-06-01T14:26:28.051Z,42.20
2018-06-01T14:28:55.965Z,43.20
2018-06-01T14:31:23.711Z,42.90
2018-06-01T14:33:50.649Z,42.30
2018-06-01T14:36:17.421Z,41.90
2018-06-01T14:38:45.101Z,42.00
2018-06-01T14:41:12.294Z,41.60
2018-06-01T14:43:40.076Z,41.30
2018-06-01T14:46:06.570Z,40.40
2018-06-01T14:51:03.184Z,39.40
2018-06-01T14:53:29.792Z,39.00
2018-06-01T14:55:59.066Z,37.70
2018-06-01T14:58:25.882Z,36.80
2018-06-01T15:00:52.960Z,35.70
2018-06-01T15:03:19.355Z,35.40
2018-06-01T15:06:02.507Z,35.20
2018-06-01T15:08:28.936Z,35.20
2018-06-01T15:10:57.290Z,35.30
2018-06-01T15:13:24.145Z,35.20
2018-06-01T15:15:51.011Z,35.20
2018-06-01T15:18:20.120Z,35.40
2018-06-01T15:23:20.904Z,36.60
2018-06-01T15:25:47.471Z,37.40
2018-06-01T15:30:42.635Z,36.80
2018-06-01T15:33:09.749Z,35.90
2018-06-01T15:35:36.887Z,35.60
2018-06-01T15:38:03.472Z,35.50
2018-06-01T15:42:58.960Z,35.70
2018-06-01T15:50:21.818Z,36.40
2018-06-01T15:52:48.290Z,36.00
2018-06-01T15:55:15.074Z,35.60
2018-06-01T15:57:42.292Z,34.90
2018-06-01T16:05:05.195Z,34.40
2018-06-01T16:10:00.955Z,34.30
2018-06-01T16:12:27.348Z,34.30
2018-06-01T16:14:54.372Z,35.00
2018-06-01T16:17:21.888Z,35.30
2018-06-01T16:19:48.241Z,35.20
2018-06-01T16:22:14.533Z,34.90
2018-06-01T16:24:41.049Z,35.00
2018-06-01T16:27:08.770Z,34.80
2018-06-01T16:32:03.324Z,35.60
2018-06-01T16:34:30.869Z,36.00
2018-06-01T16:36:57.610Z,35.80
2018-06-01T16:39:24.472Z,35.40
2018-06-01T16:41:51.038Z,36.10
2018-06-01T16:44:23.397Z,35.90
2018-06-01T16:46:55.305Z,35.70
2018-06-01T16:49:22.347Z,35.50
2018-06-01T16:51:49.167Z,35.00
2018-06-01T16:54:16.388Z,34.70
2018-06-01T16:56:43.634Z,34.30
2018-06-01T16:59:10.808Z,34.00
2018-06-01T17:01:37.811Z,33.60
2018-06-01T17:04:05.217Z,33.60
2018-06-01T17:06:31.880Z,33.10
2018-06-01T17:11:26.707Z,32.80
2018-06-01T17:13:54.016Z,32.80
2018-06-01T17:18:48.529Z,32.60
2018-06-01T17:21:16.689Z,32.60
2018-06-01T17:23:44.554Z,32.80
2018-06-01T17:26:11.587Z,33.10
2018-06-01T17:28:38.171Z,33.00
2018-06-01T17:31:05.520Z,33.20
2018-06-01T17:33:31.886Z,33.20
2018-06-01T17:38:26.707Z,32.80
2018-06-01T17:40:53.389Z,33.10
2018-06-01T17:43:19.668Z,33.10
2018-06-01T17:48:14.050Z,32.80
2018-06-01T17:50:40.784Z,32.70
2018-06-01T17:53:08.186Z,32.50
2018-06-01T17:58:02.962Z,31.90
2018-06-01T18:00:29.216Z,31.90
2018-06-01T18:02:58.157Z,31.80
2018-06-01T18:05:24.388Z,32.00
2018-06-01T18:07:51.378Z,31.70
2018-06-01T18:10:19.262Z,31.60
2018-06-01T18:12:46.809Z,31.40
2018-06-01T18:15:13.219Z,31.30
2018-06-01T18:20:08.591Z,31.00
2018-06-01T18:22:34.956Z,30.80
2018-06-01T18:25:01.232Z,30.60
2018-06-01T18:27:28.841Z,30.30
2018-06-01T18:29:55.392Z,30.10
2018-06-01T18:34:50.130Z,29.20
2018-06-01T18:39:46.107Z,28.70
2018-06-01T18:42:12.552Z,28.40
2018-06-01T18:44:39.095Z,28.20
2018-06-01T18:47:06.332Z,28.00
2018-06-01T18:49:33.110Z,27.80
2018-06-01T18:52:00.569Z,27.70
2018-06-01T18:54:27.345Z,27.40
2018-06-01T18:56:54.048Z,27.10
2018-06-01T18:59:20.583Z,27.00
2018-06-01T19:01:48.449Z,26.60
2018-06-01T19:04:16.101Z,26.30
2018-06-01T19:11:38.938Z,25.70
2018-06-01T19:14:06.770Z,25.30
2018-06-01T19:16:33.722Z,25.10
2018-06-01T19:19:00.141Z,24.80
2018-06-01T19:21:26.611Z,24.60
2018-06-01T19:23:53.016Z,24.40
2018-06-01T19:26:20.282Z,24.30
2018-06-01T19:31:15.566Z,23.90
2018-06-01T19:36:10.825Z,23.60
2018-06-01T19:38:37.206Z,23.40
2018-06-01T19:41:03.580Z,23.30
2018-06-01T19:43:30.181Z,23.20
2018-06-01T19:48:25.464Z,22.80
2018-06-01T19:50:52.089Z,22.80
2018-06-01T19:53:19.152Z,22.70
2018-06-01T19:55:46.562Z,22.50
2018-06-01T19:58:19.535Z,22.40
2018-06-01T20:00:46.118Z,22.40
2018-06-01T20:03:13.677Z,22.20
2018-06-01T20:05:40.447Z,22.00
2018-06-01T20:08:07.008Z,22.00
2018-06-01T20:10:33.541Z,22.00
2018-06-01T20:13:00.114Z,21.90
2018-06-01T20:15:28.649Z,21.70
2018-06-01T20:17:56.485Z,21.70
2018-06-01T20:20:23.746Z,21.80
2018-06-01T20:22:51.460Z,21.60
2018-06-01T20:33:51.836Z,21.50
2018-06-01T20:36:18.653Z,21.50
2018-06-01T20:38:46.026Z,21.20
2018-06-01T20:41:16.561Z,21.20
2018-06-01T20:43:43.778Z,21.20
2018-06-01T20:46:11.689Z,21.10
2018-06-01T20:48:38.695Z,21.20
2018-06-01T20:51:06.229Z,20.90
2018-06-01T20:53:33.600Z,20.90
2018-06-01T20:58:30.922Z,21.00
2018-06-01T21:01:01.625Z,20.80
2018-06-01T21:03:31.966Z,20.80
2018-06-01T21:05:59.527Z,20.70
2018-06-01T21:08:26.113Z,20.50
2018-06-01T21:10:52.748Z,20.40
2018-06-01T21:13:19.408Z,20.40
2018-06-01T21:15:45.981Z,20.30
2018-06-01T21:18:13.580Z,20.40
2018-06-01T21:20:40.579Z,20.30
2018-06-01T21:23:07.263Z,20.40
2018-06-01T21:25:34.276Z,20.10
2018-06-01T21:28:00.866Z,20.20
2018-06-01T21:30:27.411Z,19.90
2018-06-01T21:32:53.994Z,20.00
2018-06-01T21:35:20.445Z,20.00
2018-06-01T21:37:46.896Z,19.80
2018-06-01T21:40:13.601Z,19.80
2018-06-01T21:42:40.204Z,19.80
2018-06-01T21:45:06.617Z,19.60
2018-06-01T21:47:33.095Z,19.60
2018-06-01T21:50:01.349Z,19.50
2018-06-01T21:52:29.023Z,19.40
2018-06-01T21:54:56.136Z,19.30
2018-06-01T21:57:23.649Z,19.30
2018-06-01T21:59:50.197Z,19.30
2018-06-01T22:02:17.438Z,19.60
2018-06-01T22:04:44.353Z,19.70
2018-06-01T22:07:11.715Z,19.70
2018-06-01T22:09:38.751Z,19.50
2018-06-01T22:12:05.414Z,19.50
2018-06-01T22:14:32.885Z,19.60
2018-06-01T22:16:59.390Z,19.50
2018-06-01T22:19:27.092Z,19.50
2018-06-01T22:21:53.922Z,19.20
2018-06-01T22:24:21.116Z,19.30
2018-06-01T22:26:47.620Z,19.40
2018-06-01T22:29:14.873Z,19.10
2018-06-01T22:34:10.597Z,19.20
2018-06-01T22:36:38.193Z,19.10
2018-06-01T22:39:05.236Z,19.10
2018-06-01T22:41:31.708Z,19.00
2018-06-01T22:43:59.066Z,18.90
2018-06-01T22:46:26.739Z,18.90
2018-06-01T22:48:53.575Z,18.80
2018-06-01T22:51:20.041Z,18.90
2018-06-01T22:53:46.717Z,18.90
2018-06-01T22:56:14.175Z,18.80
2018-06-01T22:58:41.839Z,18.70
2018-06-01T23:01:09.317Z,18.60
2018-06-01T23:03:36.032Z,18.50
2018-06-01T23:06:03.344Z,18.40
2018-06-01T23:08:29.828Z,18.50
2018-06-01T23:10:57.433Z,18.40
2018-06-01T23:13:24.721Z,18.40
2018-06-01T23:15:51.409Z,18.40
2018-06-01T23:18:17.971Z,18.20
2018-06-01T23:20:45.023Z,18.20
2018-06-01T23:23:12.625Z,18.30
2018-06-01T23:25:39.132Z,18.30
2018-06-01T23:28:05.865Z,18.10
2018-06-01T23:30:32.477Z,18.10
2018-06-01T23:32:59.750Z,18.00
2018-06-01T23:35:26.299Z,18.00
2018-06-01T23:37:52.781Z,17.80
2018-06-01T23:40:19.296Z,17.80
2018-06-01T23:42:45.890Z,17.80
2018-06-01T23:45:12.474Z,17.50
2018-06-01T23:47:39.749Z,17.70
2018-06-01T23:50:06.269Z,17.70
2018-06-01T23:52:33.254Z,17.70
2018-06-01T23:54:59.815Z,17.40
2018-06-01T23:57:27.185Z,17.40
2018-06-01T23:59:53.671Z,17.30
